createdAt,value
2018-04-13T00:01:09.001Z,0
2018-04-13T00:02:18.975Z,0
2018-04-13T00:03:28.946Z,0
2018-04-13T00:04:38.918Z,0
2018-04-13T00:05:48.628Z,0
2018-04-13T00:06:58.336Z,0
2018-04-13T00:08:08.054Z,0
2018-04-13T00:09:17.760Z,0
2018-04-13T00:10:27.488Z,0
2018-04-13T00:11:37.473Z,0
2018-04-13T00:12:47.494Z,0
2018-04-13T00:13:57.464Z,0
2018-04-13T00:15:07.184Z,0
2018-04-13T00:16:16.892Z,0
2018-04-13T00:17:26.606Z,0
2018-04-13T00:18:36.576Z,0
2018-04-13T00:19:46.557Z,0
2018-04-13T00:20:56.535Z,0
2018-04-13T00:22:06.518Z,0
2018-04-13T00:23:16.491Z,0
2018-04-13T00:24:26.453Z,0
2018-04-13T00:25:36.157Z,0
2018-04-13T00:26:45.885Z,0
2018-04-13T00:27:55.858Z,0
2018-04-13T00:29:05.589Z,0
2018-04-13T00:30:15.574Z,0
2018-04-13T00:31:25.538Z,0
2018-04-13T00:32:35.512Z,0
2018-04-13T00:33:45.482Z,0
2018-04-13T00:34:55.456Z,0
2018-04-13T00:36:05.647Z,0
2018-04-13T00:37:15.624Z,0
2018-04-13T00:38:25.594Z,0
2018-04-13T00:39:35.578Z,0
2018-04-13T00:40:45.063Z,0
2018-04-13T00:41:55.066Z,0
2018-04-13T00:43:04.778Z,0
2018-04-13T00:44:14.757Z,0
2018-04-13T00:45:24.733Z,0
2018-04-13T00:46:34.718Z,0
2018-04-13T00:47:44.427Z,0
2018-04-13T00:48:53.876Z,0
2018-04-13T00:50:03.859Z,0
2018-04-13T00:51:13.838Z,0
2018-04-13T00:52:23.293Z,0
2018-04-13T00:53:33.254Z,0
2018-04-13T00:54:42.959Z,0
2018-04-13T00:55:52.926Z,0
2018-04-13T00:57:02.634Z,0
2018-04-13T00:58:12.602Z,0
2018-04-13T00:59:22.307Z,0
2018-04-13T01:00:32.020Z,0
2018-04-13T01:01:42.016Z,0
2018-04-13T01:02:51.982Z,0
2018-04-13T01:04:01.689Z,0
2018-04-13T01:05:11.669Z,0
2018-04-13T01:06:21.639Z,0
2018-04-13T01:07:31.356Z,0
2018-04-13T01:08:41.371Z,0
2018-04-13T01:09:51.359Z,0
2018-04-13T01:11:01.325Z,0
2018-04-13T01:12:10.815Z,0
2018-04-13T01:13:20.528Z,0
2018-04-13T01:14:30.271Z,0
2018-04-13T01:15:40.231Z,0
2018-04-13T01:16:50.195Z,0
2018-04-13T01:18:00.159Z,0
2018-04-13T01:19:10.125Z,0
2018-04-13T01:20:20.096Z,0
2018-04-13T01:21:30.055Z,0
2018-04-13T01:22:40.041Z,0
2018-04-13T01:23:50.013Z,0
2018-04-13T01:24:59.978Z,0
2018-04-13T01:26:09.938Z,0
2018-04-13T01:27:19.904Z,0
2018-04-13T01:28:30.134Z,0
2018-04-13T01:29:40.112Z,0
2018-04-13T01:30:50.080Z,0
2018-04-13T01:32:00.039Z,0
2018-04-13T01:33:10.003Z,0
2018-04-13T01:34:19.967Z,0
2018-04-13T01:35:30.194Z,0
2018-04-13T01:36:40.166Z,0
2018-04-13T01:37:50.139Z,0
2018-04-13T01:39:00.099Z,0
2018-04-13T01:40:09.553Z,0
2018-04-13T01:41:19.519Z,0
2018-04-13T01:42:29.534Z,0
2018-04-13T01:43:39.510Z,0
2018-04-13T01:44:49.231Z,0
2018-04-13T01:45:58.946Z,0
2018-04-13T01:47:08.913Z,0
2018-04-13T01:48:18.612Z,0
2018-04-13T01:49:28.326Z,0
2018-04-13T01:50:38.315Z,0
2018-04-13T01:51:48.275Z,0
2018-04-13T01:52:57.989Z,0
2018-04-13T01:54:07.961Z,0
2018-04-13T01:55:17.927Z,0
2018-04-13T01:56:27.913Z,0
2018-04-13T01:57:37.876Z,0
2018-04-13T01:58:47.325Z,0
2018-04-13T01:59:57.284Z,0
2018-04-13T02:01:07.267Z,0
2018-04-13T02:02:17.232Z,0
2018-04-13T02:03:27.206Z,0
2018-04-13T02:04:37.183Z,0
2018-04-13T02:05:46.892Z,0
2018-04-13T02:06:56.865Z,0
2018-04-13T02:08:06.831Z,0
2018-04-13T02:09:16.533Z,0
2018-04-13T02:10:26.493Z,0
2018-04-13T02:11:36.201Z,0
2018-04-13T02:12:46.189Z,0
2018-04-13T02:13:56.163Z,0
2018-04-13T02:15:05.872Z,0
2018-04-13T02:16:15.585Z,0
2018-04-13T02:17:25.305Z,0
2018-04-13T02:18:35.273Z,0
2018-04-13T02:19:45.238Z,0
2018-04-13T02:20:55.205Z,0
2018-04-13T02:22:05.209Z,0
2018-04-13T02:23:15.183Z,0
2018-04-13T02:24:25.153Z,0
2018-04-13T02:25:35.117Z,0
2018-04-13T02:26:44.574Z,0
2018-04-13T02:27:54.568Z,0
2018-04-13T02:29:04.270Z,0
2018-04-13T02:30:14.247Z,0
2018-04-13T02:31:23.968Z,0
2018-04-13T02:32:34.097Z,0
2018-04-13T02:33:44.099Z,0
2018-04-13T02:34:54.076Z,0
2018-04-13T02:36:04.090Z,0
2018-04-13T02:37:13.794Z,0
2018-04-13T02:38:23.776Z,0
2018-04-13T02:39:33.745Z,0
2018-04-13T02:40:43.705Z,0
2018-04-13T02:41:53.685Z,0
2018-04-13T02:43:03.651Z,0
2018-04-13T02:44:13.375Z,0
2018-04-13T02:45:23.092Z,0
2018-04-13T02:46:33.070Z,0
2018-04-13T02:47:42.784Z,0
2018-04-13T02:48:52.747Z,0
2018-04-13T02:50:02.722Z,0
2018-04-13T02:51:12.707Z,0
2018-04-13T02:52:22.689Z,0
2018-04-13T02:53:32.665Z,0
2018-04-13T02:54:42.653Z,0
2018-04-13T02:55:52.648Z,0
2018-04-13T02:57:02.610Z,0
2018-04-13T02:58:12.318Z,0
2018-04-13T02:59:22.311Z,0
2018-04-13T03:00:31.769Z,0
2018-04-13T03:01:41.755Z,0
2018-04-13T03:02:51.739Z,0
2018-04-13T03:04:01.443Z,0
2018-04-13T03:05:11.444Z,0
2018-04-13T03:06:21.424Z,0
2018-04-13T03:07:31.223Z,0
2018-04-13T03:08:41.262Z,0
2018-04-13T03:09:51.238Z,0
2018-04-13T03:11:01.215Z,0
2018-04-13T03:12:10.928Z,0
2018-04-13T03:13:20.628Z,0
2018-04-13T03:14:30.601Z,0
2018-04-13T03:15:40.569Z,0
2018-04-13T03:16:50.529Z,0
2018-04-13T03:18:00.497Z,0
2018-04-13T03:19:10.497Z,0
2018-04-13T03:20:20.461Z,0
2018-04-13T03:21:30.435Z,0
2018-04-13T03:22:40.406Z,0
2018-04-13T03:23:49.864Z,0
2018-04-13T03:24:59.831Z,0
2018-04-13T03:26:09.543Z,0
2018-04-13T03:27:18.990Z,0
2018-04-13T03:28:28.437Z,0
2018-04-13T03:29:37.894Z,0
2018-04-13T03:30:47.607Z,0
2018-04-13T03:31:56.549Z,0
2018-04-13T03:33:06.514Z,0
2018-04-13T03:34:16.482Z,0
2018-04-13T03:35:25.924Z,0
2018-04-13T03:36:35.375Z,0
2018-04-13T03:37:45.341Z,0
2018-04-13T03:38:55.046Z,0
2018-04-13T03:40:05.009Z,0
2018-04-13T03:41:14.978Z,0
2018-04-13T03:42:24.947Z,4
2018-04-13T03:43:34.924Z,4
2018-04-13T03:44:44.635Z,0
2018-04-13T03:45:54.615Z,4
2018-04-13T03:47:04.620Z,4
2018-04-13T03:48:14.616Z,4
2018-04-13T03:49:24.606Z,4
2018-04-13T03:50:34.583Z,8
2018-04-13T03:51:44.563Z,8
2018-04-13T03:52:54.268Z,12
2018-04-13T03:54:04.239Z,12
2018-04-13T03:55:13.947Z,16
2018-04-13T03:56:23.906Z,20
2018-04-13T03:57:33.879Z,20
2018-04-13T03:58:43.845Z,28
2018-04-13T03:59:53.574Z,32
2018-04-13T04:01:03.540Z,40
2018-04-13T04:02:13.358Z,52
2018-04-13T04:03:23.404Z,64
2018-04-13T04:04:33.360Z,76
2018-04-13T04:05:43.347Z,92
2018-04-13T04:06:53.063Z,112
2018-04-13T04:08:02.518Z,132
2018-04-13T04:09:12.486Z,148
2018-04-13T04:10:22.209Z,168
2018-04-13T04:11:31.917Z,188
2018-04-13T04:12:41.639Z,216
2018-04-13T04:13:51.360Z,244
2018-04-13T04:15:00.842Z,276
2018-04-13T04:16:10.567Z,316
2018-04-13T04:17:20.537Z,352
2018-04-13T04:18:30.011Z,392
2018-04-13T04:19:39.980Z,436
2018-04-13T04:20:49.937Z,480
2018-04-13T04:21:59.649Z,536
2018-04-13T04:23:09.618Z,600
2018-04-13T04:24:19.744Z,680
2018-04-13T04:25:29.717Z,772
2018-04-13T04:26:39.195Z,868
2018-04-13T04:27:49.188Z,984
2018-04-13T04:28:58.899Z,1084
2018-04-13T04:30:08.890Z,1188
2018-04-13T04:31:18.857Z,1276
2018-04-13T04:32:28.828Z,1352
2018-04-13T04:33:38.872Z,1420
2018-04-13T04:34:48.844Z,1472
2018-04-13T04:35:58.835Z,1536
2018-04-13T04:37:08.553Z,1600
2018-04-13T04:38:18.531Z,1660
2018-04-13T04:39:28.496Z,1744
2018-04-13T04:40:38.461Z,1876
2018-04-13T04:41:48.164Z,2012
2018-04-13T04:42:58.137Z,2116
2018-04-13T04:44:07.864Z,2208
2018-04-13T04:45:17.832Z,2292
2018-04-13T04:46:27.023Z,2368
2018-04-13T04:47:37.005Z,2416
2018-04-13T04:48:46.978Z,2448
2018-04-13T04:49:56.694Z,2476
2018-04-13T04:51:06.677Z,2524
2018-04-13T04:52:16.384Z,2592
2018-04-13T04:53:26.373Z,2672
2018-04-13T04:54:36.354Z,2776
2018-04-13T04:55:46.311Z,2888
2018-04-13T04:56:56.278Z,3012
2018-04-13T04:58:06.003Z,3128
2018-04-13T04:59:15.993Z,3276
2018-04-13T05:00:25.702Z,3444
2018-04-13T05:01:35.670Z,3584
2018-04-13T05:02:45.644Z,3680
2018-04-13T05:03:55.345Z,3788
2018-04-13T05:05:05.315Z,3872
2018-04-13T05:06:15.037Z,3928
2018-04-13T05:07:24.754Z,3912
2018-04-13T05:08:34.469Z,3864
2018-04-13T05:09:44.447Z,3744
2018-04-13T05:10:54.411Z,3580
2018-04-13T05:12:04.492Z,3392
2018-04-13T05:13:14.493Z,3180
2018-04-13T05:14:24.464Z,3084
2018-04-13T05:15:34.436Z,3156
2018-04-13T05:16:44.409Z,3264
2018-04-13T05:17:53.881Z,3252
2018-04-13T05:19:03.845Z,3156
2018-04-13T05:20:13.968Z,3032
2018-04-13T05:21:23.682Z,3016
2018-04-13T05:22:33.556Z,3152
2018-04-13T05:23:43.629Z,3324
2018-04-13T05:24:53.599Z,3460
2018-04-13T05:26:03.053Z,3572
2018-04-13T05:27:13.054Z,3628
2018-04-13T05:28:22.775Z,3580
2018-04-13T05:29:32.512Z,3452
2018-04-13T05:30:42.494Z,3328
2018-04-13T05:31:52.467Z,3292
2018-04-13T05:33:02.462Z,3360
2018-04-13T05:34:12.444Z,3424
2018-04-13T05:35:22.824Z,3420
2018-04-13T05:36:32.586Z,3384
2018-04-13T05:37:42.583Z,3460
2018-04-13T05:38:52.361Z,3600
2018-04-13T05:40:02.345Z,3772
2018-04-13T05:41:11.810Z,3992
2018-04-13T05:42:21.781Z,4196
2018-04-13T05:43:31.497Z,4216
2018-04-13T05:44:41.479Z,4164
2018-04-13T05:45:51.449Z,4592
2018-04-13T05:47:01.169Z,5216
2018-04-13T05:48:11.148Z,5748
2018-04-13T05:49:21.166Z,6108
2018-04-13T05:50:31.154Z,6288
2018-04-13T05:51:40.888Z,6280
2018-04-13T05:52:50.884Z,6116
2018-04-13T05:54:00.870Z,5968
2018-04-13T05:55:10.826Z,6008
2018-04-13T05:56:20.799Z,5940
2018-04-13T05:57:30.761Z,5576
2018-04-13T05:58:40.513Z,5104
2018-04-13T05:59:50.476Z,5024
2018-04-13T06:01:00.468Z,5488
2018-04-13T06:02:10.478Z,6020
2018-04-13T06:03:20.445Z,6100
2018-04-13T06:04:30.415Z,5780
2018-04-13T06:05:40.412Z,5632
2018-04-13T06:06:50.423Z,5912
2018-04-13T06:08:00.152Z,6100
2018-04-13T06:09:10.046Z,6032
2018-04-13T06:10:19.518Z,5856
2018-04-13T06:11:28.987Z,5180
2018-04-13T06:12:38.443Z,4512
2018-04-13T06:13:48.425Z,4196
2018-04-13T06:14:57.882Z,3840
2018-04-13T06:16:07.614Z,3480
2018-04-13T06:17:17.591Z,3352
2018-04-13T06:18:27.577Z,3320
2018-04-13T06:19:37.310Z,2952
2018-04-13T06:20:47.296Z,2464
2018-04-13T06:21:57.287Z,2164
2018-04-13T06:23:06.520Z,2016
2018-04-13T06:24:16.688Z,1968
2018-04-13T06:25:26.825Z,1956
2018-04-13T06:26:36.818Z,1908
2018-04-13T06:27:46.789Z,1940
2018-04-13T06:28:56.743Z,2120
2018-04-13T06:30:06.731Z,2272
2018-04-13T06:31:16.721Z,2400
2018-04-13T06:32:26.445Z,2592
2018-04-13T06:33:36.167Z,2688
2018-04-13T06:34:46.147Z,2536
2018-04-13T06:35:56.127Z,2256
2018-04-13T06:37:06.094Z,1936
2018-04-13T06:38:16.084Z,1680
2018-04-13T06:39:25.814Z,1520
2018-04-13T06:40:35.816Z,1500
2018-04-13T06:41:45.281Z,1616
2018-04-13T06:42:55.279Z,1784
2018-04-13T06:44:05.271Z,1860
2018-04-13T06:45:14.992Z,1948
2018-04-13T06:46:24.457Z,2000
2018-04-13T06:47:34.187Z,1920
2018-04-13T06:48:44.271Z,1820
2018-04-13T06:49:54.358Z,1704
2018-04-13T06:51:04.112Z,1600
2018-04-13T06:52:14.175Z,1504
2018-04-13T06:53:24.155Z,1496
2018-04-13T06:54:34.142Z,1568
2018-04-13T06:55:44.138Z,1792
2018-04-13T06:56:53.863Z,2048
2018-04-13T06:58:03.851Z,2404
2018-04-13T06:59:13.836Z,2904
2018-04-13T07:00:23.550Z,3328
2018-04-13T07:01:33.532Z,3848
2018-04-13T07:02:43.518Z,4672
2018-04-13T07:03:52.737Z,5272
2018-04-13T07:05:02.719Z,4864
2018-04-13T07:06:12.703Z,4256
2018-04-13T07:07:22.705Z,3800
2018-04-13T07:08:32.785Z,3580
2018-04-13T07:09:42.517Z,3508
2018-04-13T07:10:52.487Z,3740
2018-04-13T07:12:02.470Z,4140
2018-04-13T07:13:12.453Z,4272
2018-04-13T07:14:22.180Z,4024
2018-04-13T07:15:31.967Z,3524
2018-04-13T07:16:41.450Z,3072
2018-04-13T07:17:50.910Z,2860
2018-04-13T07:19:00.647Z,2964
2018-04-13T07:20:10.886Z,3152
2018-04-13T07:21:20.625Z,3328
2018-04-13T07:22:30.344Z,3840
2018-04-13T07:23:39.808Z,4796
2018-04-13T07:24:49.783Z,5816
2018-04-13T07:25:59.799Z,6244
2018-04-13T07:27:09.763Z,5964
2018-04-13T07:28:19.473Z,5312
2018-04-13T07:29:29.463Z,4388
2018-04-13T07:30:39.192Z,3564
2018-04-13T07:31:50.641Z,3028
2018-04-13T07:33:00.829Z,2660
2018-04-13T07:34:10.677Z,2336
2018-04-13T07:35:21.472Z,2168
2018-04-13T07:36:31.464Z,2212
2018-04-13T07:37:41.434Z,2444
2018-04-13T07:38:51.420Z,2852
2018-04-13T07:40:01.861Z,3416
2018-04-13T07:41:12.528Z,3652
2018-04-13T07:42:22.316Z,3392
2018-04-13T07:43:32.303Z,3228
2018-04-13T07:44:42.031Z,3316
2018-04-13T07:45:51.753Z,3456
2018-04-13T07:47:02.449Z,3256
2018-04-13T07:48:12.498Z,2904
2018-04-13T07:49:22.571Z,2584
2018-04-13T07:50:32.769Z,2476
2018-04-13T07:51:44.076Z,2852
2018-04-13T07:52:54.096Z,3624
2018-04-13T07:54:04.091Z,4740
2018-04-13T07:55:13.806Z,4980
2018-04-13T07:56:23.783Z,4992
2018-04-13T07:57:33.771Z,5280
2018-04-13T07:58:43.750Z,5028
2018-04-13T07:59:54.091Z,5100
2018-04-13T08:01:04.828Z,5120
2018-04-13T08:02:14.850Z,5312
2018-04-13T08:03:24.859Z,6636
2018-04-13T08:04:34.596Z,7392
2018-04-13T08:05:44.868Z,7300
2018-04-13T08:06:54.916Z,7084
2018-04-13T08:08:04.899Z,6860
2018-04-13T08:09:15.497Z,6736
2018-04-13T08:10:25.634Z,6440
2018-04-13T08:11:35.636Z,6436
2018-04-13T08:12:45.998Z,6692
2018-04-13T08:13:55.990Z,6488
2018-04-13T08:15:06.328Z,6212
2018-04-13T08:16:16.313Z,6160
2018-04-13T08:17:26.047Z,5864
2018-04-13T08:18:36.038Z,5628
2018-04-13T08:19:45.778Z,6436
2018-04-13T08:20:55.558Z,8228
2018-04-13T08:22:05.552Z,11104
2018-04-13T08:23:15.278Z,13608
2018-04-13T08:24:25.347Z,15436
2018-04-13T08:25:34.854Z,15916
2018-04-13T08:26:44.831Z,15780
2018-04-13T08:27:54.831Z,15832
2018-04-13T08:29:04.913Z,17260
2018-04-13T08:30:14.905Z,20192
2018-04-13T08:31:25.037Z,22272
2018-04-13T08:32:34.741Z,23392
2018-04-13T08:33:44.548Z,25024
2018-04-13T08:34:54.626Z,26176
2018-04-13T08:36:04.652Z,25408
2018-04-13T08:37:14.661Z,23392
2018-04-13T08:38:24.877Z,22080
2018-04-13T08:39:34.681Z,20256
2018-04-13T08:40:44.784Z,18816
2018-04-13T08:41:54.516Z,18240
